Time;durP1;ratioP1;P1;durP2;ratioP2;P2;SDS_P1;SDS_P2;PMS_P1;PMS_P2;Temp;Humidity;BMP_temperature;BMP_pressure;BME280_temperature;BME280_humidity;BME280_pressure;Samples;Min_cycle;Max_cycle;Signal;HPM_P1;HPM_P2
2022/01/05 00:01:37;;;;;;;9.38;2.30;;;;;;;8.88;61.92;100076.09;5074375;28;20108;-65
2022/01/05 00:04:05;;;;;;;7.40;1.70;;;;;;;8.86;61.54;100080.88;5070445;28;20041;-65
2022/01/05 00:06:34;;;;;;;8.10;2.30;;;;;;;8.86;61.76;100083.56;5061345;28;20049;-65
2022/01/05 00:09:02;;;;;;;8.13;2.78;;;;;;;8.85;61.99;100087.28;5077294;28;20040;-66
2022/01/05 00:11:30;;;;;;;6.72;2.30;;;;;;;8.85;61.70;100089.97;5066854;28;20060;-65
2022/01/05 00:13:58;;;;;;;8.85;2.10;;;;;;;8.82;61.46;100092.03;5069203;28;20056;-65
2022/01/05 00:16:26;;;;;;;10.07;1.70;;;;;;;8.81;61.18;100093.09;5074092;28;20049;-65
2022/01/05 00:18:54;;;;;;;9.48;1.90;;;;;;;8.78;60.47;100093.56;5061484;28;20075;-65
2022/01/05 00:21:22;;;;;;;9.25;2.50;;;;;;;8.76;60.60;100100.19;5064747;28;20442;-65
2022/01/05 00:23:51;;;;;;;11.43;2.38;;;;;;;8.76;61.36;100087.59;5072295;28;20044;-65
2022/01/05 00:26:19;;;;;;;12.10;2.13;;;;;;;8.75;61.04;100094.00;5062611;28;20063;-65
2022/01/05 00:28:46;;;;;;;9.48;2.25;;;;;;;8.72;60.48;100094.47;5068405;28;20045;-65
2022/01/05 00:31:14;;;;;;;11.60;3.20;;;;;;;8.73;60.93;100097.97;5078782;28;20079;-66
2022/01/05 00:33:42;;;;;;;7.55;2.08;;;;;;;8.70;61.35;100091.19;5055917;28;20060;-65
2022/01/05 00:36:10;;;;;;;9.98;2.05;;;;;;;8.68;61.42;100092.47;5070103;28;20044;-65
2022/01/05 00:38:38;;;;;;;8.75;2.33;;;;;;;8.69;60.47;100086.06;5070043;28;20048;-66
2022/01/05 00:41:07;;;;;;;6.63;1.90;;;;;;;8.68;60.61;100095.97;5078651;28;20049;-66
2022/01/05 00:43:35;;;;;;;7.75;1.92;;;;;;;8.66;60.22;100084.69;5068816;28;20179;-66
2022/01/05 00:46:04;;;;;;;12.98;2.13;;;;;;;8.63;60.26;100095.88;5069465;28;20049;-65
2022/01/05 00:48:34;;;;;;;8.13;2.55;;;;;;;8.61;60.18;100097.13;5070379;28;20045;-66
2022/01/05 00:51:03;;;;;;;7.43;1.73;;;;;;;8.58;60.48;100105.63;5074544;28;20173;-65
2022/01/05 00:53:31;;;;;;;10.43;3.10;;;;;;;8.57;60.69;100115.50;5079063;28;20421;-65
2022/01/05 00:55:59;;;;;;;9.50;2.15;;;;;;;8.54;60.59;100129.34;5073762;28;20507;-65
2022/01/05 00:58:28;;;;;;;10.18;2.28;;;;;;;8.58;60.88;100129.72;5073436;28;20065;-65
2022/01/05 01:00:56;;;;;;;9.27;2.25;;;;;;;8.56;60.86;100129.13;5066521;28;20056;-66
2022/01/05 01:03:27;;;;;;;3.90;1.30;;;;;;;8.55;59.93;100130.19;5065783;28;20119;-65
2022/01/05 01:05:55;;;;;;;9.55;2.20;;;;;;;8.51;60.37;100135.16;5073318;28;20363;-66
2022/01/05 01:08:23;;;;;;;7.75;2.17;;;;;;;8.55;60.77;100135.53;5064980;28;20104;-65
2022/01/05 01:10:51;;;;;;;13.93;2.60;;;;;;;8.51;59.93;100137.84;5072429;28;20052;-65
2022/01/05 01:13:19;;;;;;;10.02;2.00;;;;;;;8.47;59.66;100131.31;5063789;28;20049;-66
2022/01/05 01:15:49;;;;;;;9.75;2.25;;;;;;;8.46;59.79;100127.81;5064759;28;20079;-65
2022/01/05 01:18:18;;;;;;;15.40;2.25;;;;;;;8.44;59.97;100137.94;5070802;28;20065;-66
2022/01/05 01:20:47;;;;;;;14.23;2.00;;;;;;;8.43;60.17;100133.63;5074804;28;20635;-65
2022/01/05 01:23:18;;;;;;;7.70;1.95;;;;;;;8.42;59.49;100137.34;5076258;28;20091;-65
2022/01/05 01:25:46;;;;;;;7.93;2.22;;;;;;;8.42;59.66;100133.84;5057828;28;20083;-65
2022/01/05 01:28:14;;;;;;;15.77;2.58;;;;;;;8.40;60.06;100139.41;5063928;28;20052;-65
2022/01/05 01:30:41;;;;;;;12.23;3.00;;;;;;;8.38;59.54;100144.19;5069551;28;20048;-65
2022/01/05 01:33:10;;;;;;;14.30;2.38;;;;;;;8.35;59.40;100135.78;5075545;28;20041;-65
2022/01/05 01:35:39;;;;;;;11.18;2.22;;;;;;;8.33;59.77;100144.03;5064371;28;20072;-65
2022/01/05 01:38:06;;;;;;;8.32;2.92;;;;;;;8.32;59.16;100141.56;5066812;28;20044;-65
2022/01/05 01:40:34;;;;;;;15.02;2.92;;;;;;;8.35;59.55;100141.13;5068708;28;20045;-65
2022/01/05 01:43:02;;;;;;;11.80;2.08;;;;;;;8.31;59.63;100142.59;5065620;28;20482;-65
2022/01/05 01:45:30;;;;;;;13.55;2.47;;;;;;;8.31;59.19;100145.28;5064008;28;20312;-65
2022/01/05 01:47:58;;;;;;;12.18;2.22;;;;;;;8.28;59.27;100146.53;5077640;28;20056;-65
2022/01/05 01:50:27;;;;;;;8.30;2.33;;;;;;;8.24;59.62;100145.34;5077135;28;20068;-65
2022/01/05 01:52:54;;;;;;;16.23;3.65;;;;;;;8.23;59.70;100137.53;5072143;28;20182;-65
2022/01/05 01:55:22;;;;;;;10.32;2.67;;;;;;;8.15;59.21;100123.41;5063896;28;20049;-65
2022/01/05 01:57:50;;;;;;;7.35;1.95;;;;;;;8.21;59.01;100140.44;5060776;28;20087;-66
2022/01/05 02:00:18;;;;;;;11.57;2.33;;;;;;;8.21;58.62;100142.31;5052561;28;20350;-66
2022/01/05 02:02:46;;;;;;;13.63;2.75;;;;;;;8.20;59.25;100144.16;5064043;28;20076;-66
2022/01/05 02:05:15;;;;;;;9.10;2.58;;;;;;;8.18;58.52;100150.78;5066506;28;20049;-65
2022/01/05 02:07:44;;;;;;;5.95;1.73;;;;;;;8.18;59.62;100148.09;5070887;28;20077;-65
2022/01/05 02:10:12;;;;;;;9.27;2.20;;;;;;;8.14;58.31;100142.38;5067797;28;20076;-65
2022/01/05 02:12:39;;;;;;;6.82;1.92;;;;;;;8.15;59.00;100152.03;5074036;28;20045;-65
2022/01/05 02:15:08;;;;;;;8.73;2.47;;;;;;;8.13;58.69;100157.63;5063582;28;20068;-65
2022/01/05 02:17:46;;;;;;;10.68;2.00;;;;;;;8.13;58.44;100146.09;5081764;28;20478;-65
2022/01/05 02:20:16;;;;;;;11.50;1.80;;;;;;;8.10;59.89;100144.69;5064444;28;20140;-65
2022/01/05 02:22:46;;;;;;;10.73;1.98;;;;;;;8.11;59.16;100151.66;5075443;28;20135;-66
2022/01/05 02:25:15;;;;;;;8.32;2.17;;;;;;;8.09;59.02;100152.94;5059840;28;20052;-65
2022/01/05 02:27:44;;;;;;;9.35;2.47;;;;;;;8.07;59.24;100147.81;5063565;28;20121;-65
2022/01/05 02:30:18;;;;;;;7.22;1.85;;;;;;;8.09;59.38;100160.97;5063962;28;20123;-65
2022/01/05 02:32:47;;;;;;;10.93;3.10;;;;;;;8.08;59.20;100151.28;5073308;28;20044;-65
2022/01/05 02:35:14;;;;;;;11.27;3.75;;;;;;;8.05;59.22;100152.56;5065482;28;20132;-66
2022/01/05 02:37:43;;;;;;;14.10;2.70;;;;;;;8.03;59.06;100162.66;5070844;28;20143;-65
2022/01/05 02:40:14;;;;;;;6.68;2.20;;;;;;;8.02;58.99;100157.53;5063296;28;20071;-66
2022/01/05 02:42:43;;;;;;;8.20;2.17;;;;;;;7.99;58.84;100161.47;5069321;28;20064;-65
2022/01/05 02:45:13;;;;;;;10.25;2.45;;;;;;;8.01;59.27;100167.41;5055003;28;20495;-65
2022/01/05 02:47:42;;;;;;;6.68;2.45;;;;;;;7.98;59.31;100164.38;5066491;28;20063;-65
2022/01/05 02:50:12;;;;;;;7.18;2.38;;;;;;;7.94;58.18;100164.00;5064906;28;20376;-65
2022/01/05 02:52:40;;;;;;;12.98;2.55;;;;;;;7.95;58.47;100170.16;5068191;28;20060;-65
2022/01/05 02:55:09;;;;;;;9.82;2.67;;;;;;;7.92;58.54;100171.41;5069019;28;20049;-65
2022/01/05 02:57:39;;;;;;;13.75;3.33;;;;;;;7.91;58.04;100167.09;5058796;28;20053;-65
2022/01/05 03:00:10;;;;;;;11.68;2.17;;;;;;;7.91;58.59;100171.66;5066748;28;20052;-65
2022/01/05 03:02:38;;;;;;;9.77;2.63;;;;;;;7.91;58.47;100171.66;5062089;28;20454;-65
2022/01/05 03:05:07;;;;;;;7.00;2.10;;;;;;;7.88;58.98;100188.94;5077227;28;20072;-65
2022/01/05 03:07:39;;;;;;;8.73;2.20;;;;;;;7.89;58.46;100187.91;5067558;28;20041;-66
2022/01/05 03:10:09;;;;;;;11.73;2.15;;;;;;;7.88;58.23;100193.47;5076445;28;20343;-65
2022/01/05 03:12:40;;;;;;;8.68;2.60;;;;;;;7.85;58.93;100194.75;5073116;28;20060;-65
2022/01/05 03:15:09;;;;;;;11.10;2.05;;;;;;;7.83;58.83;100186.94;5065875;28;20045;-65
2022/01/05 03:17:37;;;;;;;7.85;3.00;;;;;;;7.85;59.20;100192.06;5063103;28;20080;-66
2022/01/05 03:20:05;;;;;;;7.10;2.13;;;;;;;7.83;59.11;100204.84;5062928;28;20048;-67
2022/01/05 03:22:33;;;;;;;6.55;2.30;;;;;;;7.80;58.97;100213.31;5065591;28;20118;-66
2022/01/05 03:25:01;;;;;;;8.73;1.83;;;;;;;7.81;58.68;100218.44;5071822;28;20056;-66
2022/01/05 03:27:29;;;;;;;8.27;1.85;;;;;;;7.78;58.63;100210.03;5063918;28;20049;-66
2022/01/05 03:29:58;;;;;;;9.48;2.35;;;;;;;7.79;58.88;100217.84;5058107;28;20068;-66
2022/01/05 03:32:32;;;;;;;8.45;2.03;;;;;;;7.78;59.37;100221.56;5062592;28;20057;-66
2022/01/05 03:35:00;;;;;;;5.25;1.70;;;;;;;7.79;58.73;100222.38;5066400;28;20052;-66
2022/01/05 03:37:28;;;;;;;6.25;1.80;;;;;;;7.75;58.69;100229.19;5059897;28;20129;-66
2022/01/05 03:39:56;;;;;;;8.63;2.13;;;;;;;7.70;57.70;100227.19;5080280;28;20075;-66
2022/01/05 03:42:23;;;;;;;8.15;2.33;;;;;;;7.75;58.84;100230.00;5082875;28;20063;-65
2022/01/05 03:44:51;;;;;;;9.57;2.40;;;;;;;7.74;58.48;100233.72;5067808;28;20063;-65
2022/01/05 03:47:20;;;;;;;7.95;2.53;;;;;;;7.74;58.69;100230.22;5068189;28;20079;-66
2022/01/05 03:49:48;;;;;;;8.77;2.03;;;;;;;7.72;58.50;100238.47;5067830;28;20140;-65
2022/01/05 03:52:15;;;;;;;8.63;2.58;;;;;;;7.72;58.76;100232.31;5062317;28;20053;-65
2022/01/05 03:54:43;;;;;;;11.32;3.30;;;;;;;7.69;58.54;100233.56;5062948;28;20076;-65
2022/01/05 03:57:11;;;;;;;9.57;2.78;;;;;;;7.68;58.07;100236.44;5065376;28;20077;-65
2022/01/05 03:59:39;;;;;;;10.90;2.78;;;;;;;7.68;58.11;100244.47;5060417;28;20164;-65
2022/01/05 04:02:06;;;;;;;12.23;3.17;;;;;;;7.68;59.05;100244.47;5071599;28;20083;-65
2022/01/05 04:04:36;;;;;;;12.20;2.38;;;;;;;7.67;58.36;100249.00;5065622;28;20064;-66
2022/01/05 04:07:04;;;;;;;13.75;2.63;;;;;;;7.66;58.35;100251.91;5063546;28;20107;-66
2022/01/05 04:09:32;;;;;;;8.43;2.70;;;;;;;7.67;58.56;100237.50;5076928;28;20076;-66
2022/01/05 04:12:00;;;;;;;10.68;3.10;;;;;;;7.67;59.29;100245.50;5063103;28;20048;-66
2022/01/05 04:14:28;;;;;;;10.38;2.03;;;;;;;7.66;59.00;100246.56;5064601;28;20044;-65
2022/01/05 04:16:56;;;;;;;7.85;2.55;;;;;;;7.63;59.11;100245.13;5083066;28;20080;-65
2022/01/05 04:19:24;;;;;;;10.73;2.70;;;;;;;7.64;58.43;100245.94;5067146;28;20048;-66
2022/01/05 04:21:53;;;;;;;8.85;3.17;;;;;;;7.62;59.30;100248.84;5061726;28;20073;-66
2022/01/05 04:24:21;;;;;;;11.50;2.55;;;;;;;7.60;58.67;100258.94;5073340;28;20056;-66
2022/01/05 04:26:48;;;;;;;12.23;3.03;;;;;;;7.59;58.09;100251.94;5069985;28;20045;-66
2022/01/05 04:29:16;;;;;;;7.93;2.80;;;;;;;7.60;58.86;100260.78;5077504;28;20159;-65
2022/01/05 04:31:45;;;;;;;12.48;3.60;;;;;;;7.59;58.91;100264.50;5083030;28;20059;-66
2022/01/05 04:34:13;;;;;;;12.93;2.20;;;;;;;7.57;59.05;100262.03;5068470;28;20065;-65
2022/01/05 04:37:02;;;;;;;8.20;2.40;;;;;;;7.57;58.79;100272.72;5061386;28;20049;-65
2022/01/05 04:39:30;;;;;;;9.77;2.35;;;;;;;7.55;58.37;100269.47;5064072;28;20049;-65
2022/01/05 04:41:58;;;;;;;8.23;2.22;;;;;;;7.55;58.46;100266.78;5063858;28;20045;-66
2022/01/05 04:44:26;;;;;;;10.13;2.00;;;;;;;7.51;59.04;100263.72;5066561;28;20048;-65
2022/01/05 04:46:54;;;;;;;8.68;2.50;;;;;;;7.54;59.05;100267.00;5082351;28;20084;-66
2022/01/05 04:49:22;;;;;;;7.35;2.17;;;;;;;7.53;58.69;100273.38;5067565;28;20053;-66
2022/01/05 04:51:49;;;;;;;13.93;2.55;;;;;;;7.51;59.39;100276.28;5063475;28;20056;-66
2022/01/05 04:54:19;;;;;;;12.23;2.53;;;;;;;7.53;59.37;100281.41;5061955;28;20136;-65
2022/01/05 04:56:47;;;;;;;11.32;2.50;;;;;;;7.50;59.40;100285.31;5060874;28;20079;-66
2022/01/05 04:59:14;;;;;;;6.85;2.88;;;;;;;7.48;59.16;100285.53;5062995;28;20052;-66
2022/01/05 05:01:42;;;;;;;11.75;3.00;;;;;;;7.46;58.80;100271.56;5075246;28;20080;-66
2022/01/05 05:04:10;;;;;;;12.68;3.97;;;;;;;7.44;59.30;100279.00;5067094;28;20506;-66
2022/01/05 05:06:38;;;;;;;15.90;3.40;;;;;;;7.45;59.29;100275.28;5075069;28;20059;-66
2022/01/05 05:09:06;;;;;;;6.57;2.67;;;;;;;7.46;59.40;100276.91;5069668;28;20088;-65
2022/01/05 05:11:35;;;;;;;9.60;2.08;;;;;;;7.43;59.61;100269.31;5064784;28;20045;-66
2022/01/05 05:14:03;;;;;;;10.93;3.15;;;;;;;7.45;59.52;100285.97;5068696;28;20498;-65
2022/01/05 05:16:31;;;;;;;9.25;2.40;;;;;;;7.37;59.05;100275.53;5078117;28;20087;-66
2022/01/05 05:18:58;;;;;;;8.40;2.10;;;;;;;7.42;59.66;100291.75;5064971;28;20053;-66
2022/01/05 05:21:26;;;;;;;9.25;2.75;;;;;;;7.42;59.80;100283.72;5072156;28;20079;-66
2022/01/05 05:23:54;;;;;;;12.75;2.63;;;;;;;7.42;59.77;100291.75;5068057;28;20059;-66
2022/01/05 05:26:22;;;;;;;11.30;3.05;;;;;;;7.43;59.19;100296.06;5081342;28;20067;-66
2022/01/05 05:28:51;;;;;;;11.20;2.40;;;;;;;7.41;59.29;100292.78;5075083;28;20447;-66
2022/01/05 05:31:19;;;;;;;11.43;3.08;;;;;;;7.40;59.25;100293.00;5085293;28;20068;-66
2022/01/05 05:33:47;;;;;;;7.22;2.78;;;;;;;7.41;59.27;100289.28;5069708;28;20547;-66
2022/01/05 05:36:14;;;;;;;11.27;3.40;;;;;;;7.40;59.51;100293.00;5066930;28;20486;-66
2022/01/05 05:38:42;;;;;;;12.90;3.08;;;;;;;7.41;59.28;100286.63;5064988;28;20118;-66
2022/01/05 05:41:10;;;;;;;15.27;3.80;;;;;;;7.41;59.41;100284.75;5085328;28;20056;-66
2022/01/05 05:43:37;;;;;;;10.05;2.60;;;;;;;7.41;59.72;100284.75;5078775;28;20056;-66
2022/01/05 05:46:06;;;;;;;6.78;2.20;;;;;;;7.41;60.03;100286.63;5082373;28;20131;-66
2022/01/05 05:48:34;;;;;;;9.55;2.70;;;;;;;7.40;59.76;100287.66;5071479;28;20052;-66
2022/01/05 05:51:02;;;;;;;14.45;3.25;;;;;;;7.38;59.92;100293.22;5064285;28;20044;-66
2022/01/05 05:53:30;;;;;;;9.80;3.78;;;;;;;7.38;59.87;100284.38;5066871;28;20052;-66
2022/01/05 05:55:57;;;;;;;9.07;2.33;;;;;;;7.40;60.74;100295.66;5065353;28;20072;-66
2022/01/05 05:58:25;;;;;;;12.15;3.60;;;;;;;7.38;59.45;100301.22;5068968;28;20048;-66
2022/01/05 06:00:55;;;;;;;9.45;3.05;;;;;;;7.36;59.65;100305.97;5064609;28;20143;-66
2022/01/05 06:03:24;;;;;;;10.05;3.35;;;;;;;7.38;59.59;100313.78;5064249;28;20049;-66
2022/01/05 06:05:52;;;;;;;11.45;3.17;;;;;;;7.35;60.04;100315.03;5065046;28;20076;-66
2022/01/05 06:08:20;;;;;;;12.75;2.75;;;;;;;7.35;60.24;100307.00;5066338;28;20084;-66
2022/01/05 06:10:47;;;;;;;12.07;3.13;;;;;;;7.34;59.95;100315.25;5064886;28;20041;-66
2022/01/05 06:13:15;;;;;;;12.85;3.88;;;;;;;7.35;59.52;100314.22;5064175;28;20502;-66
2022/01/05 06:15:43;;;;;;;12.30;3.47;;;;;;;7.32;59.40;100315.44;5067420;28;20084;-66
2022/01/05 06:18:10;;;;;;;10.07;2.67;;;;;;;7.32;59.62;100319.97;5065539;28;20041;-65
2022/01/05 06:20:39;;;;;;;13.13;2.95;;;;;;;7.30;59.69;100320.19;5067625;28;20133;-66
2022/01/05 06:23:07;;;;;;;17.50;2.78;;;;;;;7.30;59.28;100324.72;5076150;28;20040;-65
2022/01/05 06:25:35;;;;;;;10.05;3.03;;;;;;;7.31;59.91;100324.50;5066037;28;20088;-66
2022/01/05 06:28:03;;;;;;;13.55;2.88;;;;;;;7.28;59.63;100319.59;5069633;28;20045;-65
2022/01/05 06:30:31;;;;;;;12.00;2.65;;;;;;;7.30;59.62;100325.53;5064852;28;20056;-66
2022/01/05 06:32:59;;;;;;;9.18;2.53;;;;;;;7.30;59.87;100320.19;4360354;28;10000798;-66
2022/01/05 06:35:26;;;;;;;13.32;2.95;;;;;;;7.30;59.68;100330.06;5059193;28;20088;-66
2022/01/05 06:37:55;;;;;;;13.85;3.10;;;;;;;7.29;59.93;100339.94;5060095;28;20076;-65
2022/01/05 06:40:23;;;;;;;14.02;3.08;;;;;;;7.40;59.84;100339.25;5059694;28;20080;-65
2022/01/05 06:42:51;;;;;;;7.63;3.03;;;;;;;7.51;59.25;100345.78;5060757;28;20117;-66
2022/01/05 06:45:19;;;;;;;8.55;2.25;;;;;;;7.65;58.85;100350.03;5055532;28;20080;-64
2022/01/05 06:47:47;;;;;;;9.43;3.10;;;;;;;7.68;58.83;100354.94;5059441;28;20103;-65
2022/01/05 06:50:15;;;;;;;10.73;2.85;;;;;;;7.57;59.40;100330.75;5059405;28;20452;-64
2022/01/05 06:52:42;;;;;;;11.52;3.58;;;;;;;7.66;58.98;100359.69;5074520;28;20124;-64
2022/01/05 06:55:12;;;;;;;11.90;2.67;;;;;;;7.67;58.71;100355.16;5058982;28;20068;-67
2022/01/05 06:57:41;;;;;;;11.93;3.03;;;;;;;7.62;58.68;100350.47;5059754;28;20113;-67
2022/01/05 07:00:10;;;;;;;11.18;3.65;;;;;;;7.71;59.02;100359.88;5069914;28;20443;-67
2022/01/05 07:02:38;;;;;;;14.32;3.25;;;;;;;7.74;58.38;100345.25;5060764;28;20037;-66
2022/01/05 07:05:07;;;;;;;15.30;2.80;;;;;;;7.97;58.78;100358.06;5059762;28;20053;-67
2022/01/05 07:07:36;;;;;;;17.45;3.20;;;;;;;8.09;58.07;100365.16;5065341;28;20053;-66
2022/01/05 07:10:05;;;;;;;12.25;2.55;;;;;;;8.22;57.40;100371.47;5059481;28;20107;-66
2022/01/05 07:12:35;;;;;;;12.27;3.75;;;;;;;8.34;57.06;100367.88;5062213;28;20041;-66
2022/01/05 07:15:03;;;;;;;12.25;3.25;;;;;;;8.45;56.38;100383.25;5058968;28;20668;-66
2022/01/05 07:17:31;;;;;;;9.75;2.50;;;;;;;8.51;56.30;100375.38;5059435;28;20072;-67
2022/01/05 07:19:59;;;;;;;12.90;3.58;;;;;;;8.66;56.68;100376.66;5076382;28;20551;-66
2022/01/05 07:22:27;;;;;;;9.35;2.30;;;;;;;8.77;55.59;100373.22;5079744;28;20072;-67
2022/01/05 07:24:56;;;;;;;12.23;4.07;;;;;;;8.89;55.63;100386.72;5080044;28;20048;-68
2022/01/05 07:27:24;;;;;;;8.77;2.00;;;;;;;8.93;54.92;100384.41;5072355;28;20048;-67
2022/01/05 07:29:53;;;;;;;11.20;3.45;;;;;;;8.94;56.03;100399.44;5060627;28;20141;-67
2022/01/05 07:32:21;;;;;;;11.85;3.13;;;;;;;8.96;55.73;100394.69;5060972;28;20077;-67
2022/01/05 07:34:49;;;;;;;12.50;2.80;;;;;;;8.96;55.40;100392.81;5059623;28;20064;-67
2022/01/05 07:37:16;;;;;;;10.20;3.13;;;;;;;8.99;56.20;100392.38;5064539;28;20057;-67
2022/01/05 07:39:44;;;;;;;10.95;2.78;;;;;;;8.99;55.92;100405.78;5079969;28;20061;-66
2022/01/05 07:42:12;;;;;;;13.85;2.80;;;;;;;9.05;55.17;100396.03;5068771;28;20121;-64
2022/01/05 07:44:40;;;;;;;15.93;3.60;;;;;;;9.02;54.83;100402.66;5065095;28;20083;-63
2022/01/05 07:47:11;;;;;;;11.38;2.45;;;;;;;8.95;55.31;100414.50;5059237;28;20076;-65
2022/01/05 07:49:39;;;;;;;12.73;3.55;;;;;;;8.82;55.75;100413.56;5059101;28;20099;-65
2022/01/05 07:52:07;;;;;;;13.65;2.97;;;;;;;8.68;56.55;100419.28;5062306;28;20044;-65
2022/01/05 07:54:36;;;;;;;14.35;3.25;;;;;;;8.48;57.08;100422.97;5059397;28;20080;-65
2022/01/05 07:57:05;;;;;;;12.95;2.67;;;;;;;8.32;57.60;100422.66;5068839;28;20430;-65
2022/01/05 07:59:33;;;;;;;13.18;2.88;;;;;;;8.19;57.32;100425.44;5056760;28;20132;-65
2022/01/05 08:02:01;;;;;;;13.27;2.92;;;;;;;8.12;58.17;100425.47;5052391;28;20156;-64
2022/01/05 08:04:30;;;;;;;14.82;3.60;;;;;;;8.02;58.32;100423.28;5070740;28;20060;-65
2022/01/05 08:06:58;;;;;;;12.00;4.28;;;;;;;7.95;58.34;100432.38;5064559;28;20062;-66
2022/01/05 08:09:29;;;;;;;11.02;2.67;;;;;;;7.89;58.29;100434.06;5059092;28;20045;-65
2022/01/05 08:11:57;;;;;;;10.45;3.13;;;;;;;7.81;58.94;100427.09;5067229;28;20056;-65
2022/01/05 08:14:25;;;;;;;14.82;3.30;;;;;;;7.82;59.22;100438.63;5057137;28;20083;-65
2022/01/05 08:16:53;;;;;;;12.57;3.28;;;;;;;7.77;59.24;100441.13;5067799;28;20083;-65
2022/01/05 08:19:20;;;;;;;11.52;2.58;;;;;;;7.74;59.28;100441.53;5066353;28;20128;-62
2022/01/05 08:21:50;;;;;;;11.20;2.72;;;;;;;7.70;59.74;100437.66;5062804;28;20063;-65
2022/01/05 08:24:17;;;;;;;8.40;2.75;;;;;;;7.67;59.34;100451.44;5065732;28;20098;-65
2022/01/05 08:26:45;;;;;;;10.70;3.00;;;;;;;7.61;59.93;100450.44;5062237;28;20454;-67
2022/01/05 08:29:13;;;;;;;8.15;2.80;;;;;;;7.60;59.90;100458.69;5063041;28;20073;-69
2022/01/05 08:31:40;;;;;;;18.55;3.83;;;;;;;7.57;59.49;100465.28;5066602;28;20136;-65
2022/01/05 08:34:10;;;;;;;11.55;3.25;;;;;;;7.61;59.98;100463.81;5064554;28;20057;-65
2022/01/05 08:36:38;;;;;;;13.93;3.17;;;;;;;7.78;59.10;100470.31;5082353;28;20079;-65
2022/01/05 08:39:07;;;;;;;12.52;3.50;;;;;;;7.91;59.09;100477.47;5083083;28;21042;-65
2022/01/05 08:41:35;;;;;;;12.30;3.47;;;;;;;8.05;58.35;100465.66;5082688;28;20048;-65
2022/01/05 08:44:03;;;;;;;10.15;2.67;;;;;;;8.25;58.09;100467.41;5086253;28;20044;-65
2022/01/05 08:46:30;;;;;;;10.77;2.58;;;;;;;8.38;57.58;100468.16;5084734;28;20057;-65
2022/01/05 08:48:58;;;;;;;12.95;2.97;;;;;;;8.52;57.26;100468.88;5086533;28;20512;-65
2022/01/05 08:51:26;;;;;;;10.98;3.05;;;;;;;8.61;57.60;100469.44;5086245;28;20079;-65
2022/01/05 08:53:54;;;;;;;12.45;2.90;;;;;;;8.54;57.40;100466.81;5086943;28;20052;-65
2022/01/05 08:56:25;;;;;;;9.23;2.88;;;;;;;8.46;57.64;100475.13;5086402;28;20091;-65
2022/01/05 08:58:52;;;;;;;16.25;3.13;;;;;;;8.33;58.01;100478.69;5083140;28;20115;-64
2022/01/05 09:01:20;;;;;;;19.67;4.50;;;;;;;8.20;58.48;100486.78;5064849;28;20049;-65
2022/01/05 09:03:48;;;;;;;13.65;2.88;;;;;;;8.11;58.96;100485.41;5083196;28;20052;-65
2022/01/05 09:06:16;;;;;;;17.35;4.03;;;;;;;8.00;58.63;100486.06;5085572;28;20052;-65
2022/01/05 09:08:44;;;;;;;8.30;2.40;;;;;;;7.94;59.61;100484.25;5074509;28;20059;-64
2022/01/05 09:11:11;;;;;;;12.43;4.53;;;;;;;7.88;59.31;100491.28;5085788;28;20489;-65
2022/01/05 09:13:40;;;;;;;14.00;3.65;;;;;;;7.90;59.15;100488.38;5085795;28;20071;-65
2022/01/05 09:16:09;;;;;;;13.60;3.30;;;;;;;7.83;59.66;100499.94;5077669;28;20083;-65
2022/01/05 09:18:37;;;;;;;12.93;2.85;;;;;;;7.75;59.65;100497.50;5086504;28;20409;-65
2022/01/05 09:21:04;;;;;;;14.70;3.00;;;;;;;7.71;59.96;100501.63;5085108;28;20144;-65
2022/01/05 09:23:32;;;;;;;16.13;5.28;;;;;;;7.72;60.61;100499.78;5086288;28;20052;-65
2022/01/05 09:26:00;;;;;;;14.80;3.25;;;;;;;7.73;60.75;100507.59;5078531;28;20089;-65
2022/01/05 09:28:28;;;;;;;10.57;3.00;;;;;;;7.68;60.83;100502.06;5084894;28;20162;-65
2022/01/05 09:30:57;;;;;;;13.93;3.08;;;;;;;7.68;61.12;100506.56;5066170;28;20080;-65
2022/01/05 09:33:25;;;;;;;13.13;2.60;;;;;;;7.69;60.86;100498.34;5078716;28;20070;-65
2022/01/05 09:36:02;;;;;;;14.32;3.42;;;;;;;7.73;61.38;100490.72;5084831;28;20072;-65
2022/01/05 09:41:56;;;;;;;11.43;2.53;;;;;;;7.88;60.08;100498.47;5066160;28;20472;-65
2022/01/05 09:44:12;;;;;;;13.20;3.25;;;;;;;8.29;58.88;100512.25;5078490;28;20090;-64
2022/01/05 09:47:03;;;;;;;15.07;3.22;;;;;;;8.46;59.00;100517.97;5080545;28;20075;-64
2022/01/05 09:49:34;;;;;;;17.38;2.90;;;;;;;8.51;58.77;100525.34;5061327;28;20076;-65
2022/01/05 09:52:06;;;;;;;13.40;4.22;;;;;;;8.52;57.88;100522.44;5074986;28;20173;-65
2022/01/05 09:54:34;;;;;;;10.32;2.85;;;;;;;8.49;58.88;100533.59;5085206;28;20332;-65
2022/01/05 09:57:03;;;;;;;15.80;4.68;;;;;;;8.38;58.94;100532.44;5085375;28;20074;-64
2022/01/05 09:59:34;;;;;;;9.02;2.88;;;;;;;8.33;59.51;100539.47;5084640;28;20064;-65
2022/01/05 10:02:05;;;;;;;14.15;3.38;;;;;;;8.28;59.68;100548.09;5084968;28;20052;-65
2022/01/05 10:04:33;;;;;;;13.63;3.28;;;;;;;8.14;60.24;100533.16;5073624;28;20155;-65
2022/01/05 10:07:01;;;;;;;14.57;3.72;;;;;;;8.14;60.08;100541.19;5068176;28;20048;-65
2022/01/05 10:09:29;;;;;;;9.73;3.15;;;;;;;8.15;59.80;100542.81;5064445;28;20560;-64
2022/01/05 10:11:57;;;;;;;12.95;2.90;;;;;;;8.19;59.99;100543.22;5078388;28;20059;-65
2022/01/05 10:14:24;;;;;;;13.88;3.08;;;;;;;8.15;60.78;100549.00;5084780;28;20048;-65
2022/01/05 10:17:05;;;;;;;14.75;3.45;;;;;;;8.12;60.33;100551.28;5084164;28;20050;-65
2022/01/05 10:19:34;;;;;;;12.52;2.92;;;;;;;8.11;61.03;100544.28;5080766;28;20060;-65
2022/01/05 10:22:04;;;;;;;9.15;2.88;;;;;;;8.13;60.24;100540.34;5065445;28;20055;-65
2022/01/05 10:24:43;;;;;;;12.80;2.58;;;;;;;8.09;60.51;100546.34;5065642;28;20155;-65
2022/01/05 10:27:16;;;;;;;14.93;2.72;;;;;;;8.10;61.08;100540.78;5072443;28;20040;-64
2022/01/05 10:29:56;;;;;;;12.88;2.67;;;;;;;8.03;60.70;100557.91;5084397;28;20052;-65
2022/01/05 10:32:26;;;;;;;11.48;3.30;;;;;;;7.96;60.92;100555.25;5084495;28;20048;-64
2022/01/05 10:35:06;;;;;;;12.73;2.95;;;;;;;7.94;60.97;100561.84;5084329;28;20095;-65
2022/01/05 10:37:34;;;;;;;10.13;2.75;;;;;;;7.87;61.49;100564.53;5079147;28;20045;-65
2022/01/05 10:40:09;;;;;;;14.07;3.63;;;;;;;7.80;60.90;100561.88;5076399;28;20056;-65
2022/01/05 10:42:38;;;;;;;17.25;3.80;;;;;;;7.81;61.18;100571.56;5084423;28;20048;-65
2022/01/05 10:45:08;;;;;;;17.73;2.75;;;;;;;7.86;61.45;100567.44;5084290;28;20093;-65
2022/01/05 10:47:37;;;;;;;12.57;3.00;;;;;;;7.76;60.84;100568.69;5084268;28;20052;-65
2022/01/05 10:50:11;;;;;;;12.40;3.33;;;;;;;7.77;61.52;100570.34;5084234;28;20064;-65
2022/01/05 10:52:41;;;;;;;11.43;2.58;;;;;;;7.79;61.36;100568.28;5075326;28;20056;-65
2022/01/05 10:55:12;;;;;;;16.05;3.20;;;;;;;7.82;61.13;100577.72;5084226;28;20076;-65
2022/01/05 10:57:43;;;;;;;8.75;2.40;;;;;;;7.80;61.56;100574.44;5084212;28;20044;-65
2022/01/05 11:00:12;;;;;;;10.30;2.70;;;;;;;7.78;61.15;100576.50;5076635;28;20056;-65
2022/01/05 11:02:41;;;;;;;17.50;3.40;;;;;;;7.77;61.95;100594.41;5083864;28;20044;-65
2022/01/05 11:05:14;;;;;;;16.35;3.05;;;;;;;7.79;61.13;100595.03;5082374;28;20057;-66
2022/01/05 11:07:46;;;;;;;17.92;3.80;;;;;;;7.80;61.65;100606.53;5069952;28;20477;-65
2022/01/05 11:10:17;;;;;;;11.77;3.00;;;;;;;7.75;61.56;100601.81;5083861;28;20131;-65
2022/01/05 11:12:47;;;;;;;12.98;2.75;;;;;;;7.63;62.02;100603.50;5083691;28;20450;-65
2022/01/05 11:15:24;;;;;;;13.82;2.85;;;;;;;7.68;61.75;100614.38;5083247;28;20087;-66
2022/01/05 11:18:14;;;;;;;10.77;2.88;;;;;;;7.67;61.76;100614.59;5083646;28;20112;-65
2022/01/05 11:20:46;;;;;;;15.00;2.85;;;;;;;7.71;61.94;100599.78;5083096;28;20075;-65
2022/01/05 11:23:15;;;;;;;11.43;2.88;;;;;;;7.72;61.10;100602.25;5083734;28;20140;-65
2022/01/05 11:25:44;;;;;;;15.18;3.05;;;;;;;7.67;61.27;100606.56;5078216;28;20475;-65
2022/01/05 11:28:13;;;;;;;11.55;2.72;;;;;;;7.68;61.25;100611.72;5076982;28;20048;-65
2022/01/05 11:30:43;;;;;;;13.65;2.70;;;;;;;7.67;61.21;100617.28;5071256;28;20470;-66
2022/01/05 11:33:13;;;;;;;11.73;2.90;;;;;;;7.56;61.97;100613.38;5064318;28;20072;-67
2022/01/05 11:35:41;;;;;;;12.93;2.60;;;;;;;7.63;61.55;100648.13;5063429;28;20064;-64
2022/01/05 11:38:10;;;;;;;13.48;2.97;;;;;;;7.80;61.31;100614.56;4358112;28;10000689;-66